Latest Weather Observations for Hervey Bay

IDQ60801

Issued at 5:05 pm EST Wednesday 17 September 2014 (issued every 30 minutes, with the page automatically refreshed every 10 minutes)

About weather observations | Map of weather stations | Latest weather observations for QLD | Other Formats
Station Details ID: 040405 Name: HERVEY BAY AIRPORT Lat: -25.32 Lon: 152.88 Height: 12.98 m
Data from the previous 72 hours. | See also: Recent months at Hervey Bay
Date/Time
EST
Temp
°C
App
Temp
°C
Dew
Point
Rel
Hum
%
Delta-T
°C
Wind Press
QNH
hPa
Press
MSL
hPa
Rain
since 9 am
mm
Dir
 
Spd
km/h
Gust
km/h
Spd
kts
Gust
kts
17/05:00pm 22.2 21.5 16.5 70 3.5 N 15 24 8 13 1013.1 1013.0 0.0
17/04:30pm 22.4 20.7 16.2 68 3.8 N 20 32 11 17 1012.7 1012.6 0.0
17/04:00pm 22.9 20.9 16.4 67 4.0 N 22 32 12 17 1012.5 1012.4 0.0
17/03:30pm 23.1 21.2 16.6 67 4.0 N 22 33 12 18 1012.5 1012.4 0.0
17/03:00pm 23.4 20.9 17.2 68 3.8 N 26 35 14 19 1012.5 1012.4 0.0
17/02:30pm 23.1 20.5 16.9 68 3.8 N 26 35 14 19 1012.7 1012.6 0.0
17/02:00pm 23.0 20.1 17.0 69 3.7 N 28 35 15 19 1013.1 1013.0 0.0
17/01:30pm 22.9 20.1 17.4 71 3.4 N 28 37 15 20 1013.5 1013.4 0.0
17/01:00pm 23.2 21.2 17.4 70 3.6 N 24 37 13 20 1014.0 1013.9 0.0
17/12:30pm 23.3 20.8 17.1 68 3.8 N 26 33 14 18 1014.0 1013.9 0.0
17/12:00pm 23.1 20.2 17.1 69 3.7 N 28 35 15 19 1014.6 1014.5 0.0
17/11:30am 23.1 20.7 16.4 66 4.1 N 24 32 13 17 1015.1 1015.0 0.0
17/11:00am 23.1 20.7 16.4 66 4.1 N 24 33 13 18 1015.7 1015.6 0.0
17/10:30am 23.8 21.9 16.6 64 4.4 N 22 30 12 16 1016.3 1016.2 0.0
17/10:00am 23.6 21.5 16.1 62 4.5 NNW 22 28 12 15 1016.8 1016.7 0.0
17/09:30am 22.6 20.0 15.9 66 4.0 N 24 32 13 17 1017.0 1016.9 0.0
17/09:00am 22.8 20.3 16.1 66 4.0 NW 24 37 13 20 1017.2 1017.1 0.0
17/08:30am 22.2 19.5 16.7 71 3.4 NNW 26 33 14 18 1017.4 1017.3 0.0
17/08:00am 21.6 19.3 16.6 73 3.0 NW 24 35 13 19 1017.2 1017.1 0.0
17/07:30am 21.2 20.1 17.2 78 2.4 NW 19 26 10 14 1016.9 1016.8 0.0
17/07:00am 19.8 20.2 17.2 85 1.6 WNW 11 20 6 11 1016.5 1016.4 0.0
17/06:30am 17.9 20.1 16.4 91 0.9 CALM 0 0 0 0 1016.2 1016.1 0.0
17/06:00am 17.4 17.8 16.4 94 0.6 SW 9 11 5 6 1016.0 1015.9 0.0
17/05:30am 17.6 18.4 16.3 92 0.8 WNW 7 9 4 5 1015.5 1015.4 0.0
17/05:00am 18.0 18.4 16.3 90 1.0 NW 9 11 5 6 1015.3 1015.2 0.0
17/04:30am 19.1 19.7 16.9 87 1.3 WNW 9 13 5 7 1015.3 1015.2 0.0
17/04:00am 20.0 19.2 17.0 83 1.8 NNW 17 22 9 12 1014.9 1014.8 0.0
17/03:30am 19.9 19.4 16.9 83 1.8 NNW 15 22 8 12 1014.7 1014.6 0.0
17/03:00am 20.2 18.9 16.8 81 2.1 N 19 28 10 15 1014.6 1014.5 0.0
17/02:30am 20.1 18.6 16.7 81 2.1 N 20 28 11 15 1014.7 1014.6 0.0
17/02:00am 20.2 18.9 16.8 81 2.1 N 19 28 10 15 1014.9 1014.8 0.0
17/01:30am 20.1 18.8 16.7 81 2.1 N 19 26 10 14 1015.0 1014.9 0.0
17/01:00am 20.1 18.8 16.7 81 2.1 N 19 26 10 14 1015.1 1015.0 0.0
17/12:30am 20.1 18.7 16.5 80 2.2 N 19 30 10 16 1015.2 1015.1 0.0
17/12:00am 20.1 18.8 16.7 81 2.1 N 19 28 10 15 1015.3 1015.2 0.0
 
Date/Time
EST
Temp
°C
App
Temp
°C
Dew
Point
Rel
Hum
%
Delta-T
°C
Wind Press
QNH
hPa
Press
MSL
hPa
Rain
since 9 am
mm
Dir
 
Spd
km/h
Gust
km/h
Spd
kts
Gust
kts
16/11:30pm 20.2 19.2 16.6 80 2.2 N 17 22 9 12 1015.5 1015.4 0.0
16/11:00pm 20.3 18.8 16.7 80 2.2 N 20 28 11 15 1015.6 1015.5 0.0
16/10:30pm 20.2 19.3 16.8 81 2.1 N 17 26 9 14 1015.6 1015.5 0.0
16/10:00pm 20.1 19.2 16.9 82 1.9 N 17 26 9 14 1015.7 1015.6 0.0
16/09:30pm 20.1 19.4 17.3 84 1.7 N 17 20 9 11 1015.6 1015.5 0.0
16/09:00pm 20.2 19.4 17.2 83 1.8 N 17 22 9 12 1015.4 1015.3 0.0
16/08:30pm 19.9 19.9 17.1 84 1.7 N 13 19 7 10 1015.2 1015.1 0.0
16/08:00pm 20.1 19.4 17.3 84 1.7 N 17 26 9 14 1015.0 1014.9 0.0
16/07:30pm 20.2 19.0 17.0 82 1.9 N 19 30 10 16 1014.9 1014.8 0.0
16/07:00pm 20.0 19.2 17.0 83 1.8 N 17 28 9 15 1014.7 1014.6 0.0
16/06:30pm 20.2 19.0 17.0 82 1.9 N 19 26 10 14 1014.4 1014.3 0.0
16/06:00pm 19.9 19.2 16.5 81 2.0 N 15 20 8 11 1014.2 1014.1 0.0
16/05:30pm 20.5 19.4 16.3 77 2.5 N 17 26 9 14 1013.8 1013.7 0.0
16/05:00pm 21.0 18.8 16.0 73 3.0 N 22 30 12 16 1013.8 1013.7 0.0
16/04:30pm 21.6 19.8 15.9 70 3.4 N 20 28 11 15 1014.2 1014.1 0.0
16/04:00pm 21.9 19.5 15.5 67 3.8 N 22 32 12 17 1014.1 1014.0 0.0
16/03:30pm 22.6 20.7 15.7 65 4.1 N 20 28 11 15 1014.0 1013.9 0.0
16/03:00pm 22.3 19.9 15.4 65 4.1 N 22 30 12 16 1014.1 1014.0 0.0
16/02:30pm 22.5 19.5 14.9 62 4.5 N 24 33 13 18 1014.4 1014.3 0.0
16/02:00pm 23.1 21.0 15.2 61 4.7 N 20 28 11 15 1014.8 1014.7 0.0
16/01:30pm 23.3 21.5 15.9 63 4.5 N 20 30 11 16 1015.2 1015.1 0.0
16/01:00pm 23.1 20.6 15.2 61 4.7 N 22 30 12 16 1015.6 1015.5 0.0
16/12:30pm 23.4 20.5 15.2 60 4.9 N 24 32 13 17 1016.0 1015.9 0.0
16/12:00pm 23.3 21.2 14.8 59 5.0 N 19 26 10 14 1016.7 1016.6 0.0
16/11:30am 23.3 21.1 14.8 59 5.0 N 20 30 11 16 1017.3 1017.2 0.0
16/11:00am 23.4 22.2 16.0 63 4.5 NW 17 30 9 16 1017.7 1017.6 0.0
16/10:30am 22.7 20.6 15.3 63 4.4 N 20 28 11 15 1017.8 1017.7 0.0
16/10:00am 22.5 20.9 15.1 63 4.4 NNW 17 26 9 14 1018.4 1018.3 0.0
16/09:30am 22.5 21.6 15.8 66 4.0 NNW 15 20 8 11 1018.5 1018.4 0.0
16/09:00am 21.8 21.4 16.3 71 3.3 N 13 17 7 9 1018.7 1018.6 0.0
16/08:30am 21.7 22.1 16.4 72 3.2 NNW 9 19 5 10 1018.8 1018.7 0.0
16/08:00am 20.0 21.6 16.8 82 1.9 N 4 7 2 4 1018.6 1018.5 0.0
16/07:30am 17.8 19.7 15.8 88 1.2 CALM 0 0 0 0 1018.6 1018.5 0.0
16/07:00am 16.1 17.7 15.0 93 0.6 CALM 0 0 0 0 1018.3 1018.2 0.0
16/06:30am 14.0 14.3 13.4 96 0.3 SSW 4 7 2 4 1017.9 1017.8 0.0
16/06:00am 12.2 12.6 11.3 94 0.5 CALM 0 0 0 0 1017.6 1017.5 0.0
16/05:30am 12.2 12.2 11.3 94 0.5 SSW 2 6 1 3 1017.3 1017.2 0.0
16/05:00am 12.8 13.4 11.9 94 0.5 CALM 0 4 0 2 1017.0 1016.9 0.0
16/04:30am 13.0 12.5 12.1 94 0.5 SW 6 7 3 4 1016.9 1016.8 0.0
16/04:00am 13.5 13.7 12.9 96 0.3 SSW 4 7 2 4 1016.6 1016.5 0.0
16/03:30am 13.5 13.1 13.0 97 0.3 SSW 7 11 4 6 1016.6 1016.5 0.0
16/03:00am 12.3 12.7 11.4 94 0.5 CALM 0 0 0 0 1016.3 1016.2 0.0
16/02:30am 12.4 12.8 11.3 93 0.6 CALM 0 0 0 0 1016.2 1016.1 0.0
16/02:00am 12.5 12.9 11.4 93 0.6 CALM 0 0 0 0 1016.3 1016.2 0.0
16/01:30am 12.7 13.2 11.6 93 0.6 CALM 0 0 0 0 1016.4 1016.3 0.0
16/01:00am 12.8 13.3 11.7 93 0.6 CALM 0 0 0 0 1016.7 1016.6 0.0
16/12:30am 12.9 13.4 11.6 92 0.7 CALM 0 0 0 0 1016.9 1016.8 0.0
16/12:00am 13.4 12.7 12.1 92 0.7 NE 7 7 4 4 1017.1 1017.0 0.0
 
Date/Time
EST
Temp
°C
App
Temp
°C
Dew
Point
Rel
Hum
%
Delta-T
°C
Wind Press
QNH
hPa
Press
MSL
hPa
Rain
since 9 am
mm
Dir
 
Spd
km/h
Gust
km/h
Spd
kts
Gust
kts
15/11:30pm 13.4 12.9 12.0 91 0.8 NE 6 6 3 3 1017.4 1017.3 0.0
15/11:00pm 13.8 14.6 12.4 91 0.8 CALM 0 0 0 0 1017.3 1017.2 0.0
15/10:30pm 14.1 15.0 12.8 92 0.7 CALM 0 0 0 0 1017.5 1017.4 0.0
15/10:00pm 14.4 14.1 12.8 90 0.9 NNE 6 7 3 4 1017.5 1017.4 0.0
15/09:30pm 15.0 14.6 13.0 88 1.1 NNE 7 9 4 5 1017.7 1017.6 0.0
15/09:00pm 15.3 15.0 13.3 88 1.1 N 7 9 4 5 1017.6 1017.5 0.0
15/08:30pm 15.4 15.4 13.6 89 1.0 N 6 9 3 5 1017.7 1017.6 0.0
15/08:00pm 15.9 17.0 13.6 86 1.3 CALM 0 0 0 0 1017.6 1017.5 0.0
15/07:30pm 17.7 17.9 14.6 82 1.8 N 7 9 4 5 1017.2 1017.1 0.0
15/07:00pm 18.4 18.5 14.5 78 2.3 N 7 9 4 5 1017.0 1016.9 0.0
15/06:30pm 18.9 19.1 14.6 76 2.5 N 7 9 4 5 1016.7 1016.6 0.0
15/06:00pm 19.5 19.2 14.3 72 3.0 N 9 11 5 6 1016.4 1016.3 0.0
15/05:30pm 20.4 19.5 13.8 66 3.8 N 11 15 6 8 1016.3 1016.2 0.0
15/05:00pm 21.3 20.0 13.7 62 4.4 N 13 17 7 9 1016.0 1015.9 0.0
15/04:30pm 21.8 19.7 13.7 60 4.7 N 17 20 9 11 1015.9 1015.8 0.0
15/04:00pm 22.9 21.1 13.4 55 5.5 N 15 20 8 11 1015.7 1015.6 0.0
15/03:30pm 23.1 21.4 13.6 55 5.5 N 15 20 8 11 1015.7 1015.6 0.0
15/03:00pm 23.3 21.3 13.8 55 5.5 N 17 24 9 13 1015.8 1015.7 0.0
15/02:30pm 23.3 21.5 13.2 53 5.8 N 15 20 8 11 1015.8 1015.7 0.0
15/02:00pm 23.7 22.4 13.6 53 5.9 N 13 20 7 11 1016.0 1015.9 0.0
15/01:30pm 23.8 22.1 13.6 52 5.9 N 15 20 8 11 1016.3 1016.2 0.0
15/01:00pm 23.6 21.3 12.9 51 6.2 N 17 22 9 12 1016.7 1016.6 0.0
15/12:30pm 24.1 22.2 13.0 50 6.4 NNE 15 20 8 11 1017.2 1017.1 0.0
15/12:00pm 23.6 21.9 12.6 50 6.3 N 13 20 7 11 1017.5 1017.4 0.0
15/11:30am 23.2 21.5 12.5 51 6.1 N 13 19 7 10 1018.2 1018.1 0.0
15/11:00am 23.6 22.8 14.0 55 5.6 N 11 17 6 9 1018.8 1018.7 0.0
15/10:30am 22.9 22.4 12.5 52 5.9 N 7 13 4 7 1019.2 1019.1 0.0
15/10:00am 22.7 22.3 12.9 54 5.6 ENE 7 19 4 10 1019.5 1019.4 0.0
15/09:30am 22.3 22.2 13.4 57 5.1 ENE 6 15 3 8 1019.6 1019.5 0.0
15/09:00am 20.8 21.6 13.7 64 4.1 SSW 2 6 1 3 1019.9 1019.8 0.0
15/08:30am 19.2 19.3 14.5 74 2.7 SSW 7 9 4 5 1020.0 1019.9 0.0
15/08:00am 17.3 17.5 14.6 84 1.6 SSW 7 9 4 5 1020.1 1020.0 0.0
15/07:30am 15.7 15.5 13.5 87 1.2 SSW 7 9 4 5 1019.8 1019.7 0.0
15/07:00am 14.1 14.6 12.7 91 0.8 SW 2 7 1 4 1019.5 1019.4 0.0
15/06:30am 12.6 13.2 11.8 95 0.4 CALM 0 6 0 3 1019.3 1019.2 0.0
15/06:00am 11.1 10.2 10.5 96 0.3 WSW 6 6 3 3 1019.3 1019.2 0.0
15/05:30am 10.5 10.4 9.6 94 0.5 CALM 0 0 0 0 1018.9 1018.8 0.0
15/05:00am 11.2 11.0 10.4 95 0.4 WSW 2 6 1 3 1018.9 1018.8 0.0
15/04:30am 11.6 11.2 11.0 96 0.3 SW 4 7 2 4 1018.7 1018.6 0.0
15/04:00am 11.1 9.9 10.3 95 0.4 SSW 7 7 4 4 1018.5 1018.4 0.0
15/03:30am 10.8 10.9 10.0 95 0.4 CALM 0 0 0 0 1018.5 1018.4 0.0
15/03:00am 10.9 11.0 10.0 94 0.5 CALM 0 0 0 0 1018.3 1018.2 0.0
15/02:30am 11.1 11.2 10.2 94 0.5 CALM 0 0 0 0 1018.6 1018.5 0.0
15/02:00am 11.0 11.1 10.1 94 0.5 CALM 0 0 0 0 1018.8 1018.7 0.0
15/01:30am 11.0 11.0 9.9 93 0.6 CALM 0 0 0 0 1019.0 1018.9 0.0
15/01:00am 11.5 11.7 10.6 94 0.5 CALM 0 0 0 0 1019.3 1019.2 0.0
15/12:30am 11.5 11.7 10.6 94 0.5 CALM 0 0 0 0 1019.4 1019.3 0.0
15/12:00am 11.7 11.9 10.6 93 0.6 CALM 0 0 0 0 1019.7 1019.6 0.0
 
Date/Time
EST
Temp
°C
App
Temp
°C
Dew
Point
Rel
Hum
%
Delta-T
°C
Wind Press
QNH
hPa
Press
MSL
hPa
Rain
since 9 am
mm
Dir
 
Spd
km/h
Gust
km/h
Spd
kts
Gust
kts
14/11:30pm 11.9 12.2 10.8 93 0.6 CALM 0 0 0 0 1020.1 1020.0 0.0
14/11:00pm 12.5 12.9 11.4 93 0.6 CALM 0 0 0 0 1020.1 1020.0 0.0
14/10:30pm 12.5 12.9 11.2 92 0.7 CALM 0 0 0 0 1020.2 1020.1 0.0
14/10:00pm 13.0 13.5 11.7 92 0.7 CALM 0 0 0 0 1020.3 1020.2 0.0
14/09:30pm 13.3 13.9 11.9 91 0.7 CALM 0 0 0 0 1020.4 1020.3 0.0
14/09:00pm 14.0 14.8 12.4 90 0.9 CALM 0 0 0 0 1020.2 1020.1 0.0
14/08:30pm 14.5 15.3 12.4 87 1.1 CALM 0 0 0 0 1020.3 1020.2 0.0
14/08:00pm 15.6 16.4 12.7 83 1.6 CALM 0 0 0 0 1020.2 1020.1 0.0
14/07:30pm 17.7 17.4 13.2 75 2.5 SE 7 11 4 6 1020.0 1019.9 0.0
14/07:00pm 18.6 18.0 13.5 72 2.9 ESE 9 13 5 7 1019.9 1019.8 0.0
14/06:30pm 19.2 17.4 13.4 69 3.3 ESE 15 22 8 12 1019.5 1019.4 0.0
14/06:00pm 19.6 17.2 12.8 65 3.8 ESE 17 26 9 14 1019.4 1019.3 0.0
14/05:30pm 20.3 17.9 12.5 61 4.4 E 17 20 9 11 1019.5 1019.4 0.0

Other Formats:

Comma delimited format used in spreadsheet applications
http://www.bom.gov.au/fwo/IDQ60801/IDQ60801.95565.axf

JavaScript Object Notation format (JSON) in row-major order
http://www.bom.gov.au/fwo/IDQ60801/IDQ60801.95565.json